Troy, NY

8:32 AM EDT on April 25, 2015 (GMT -0400)
Brunswick, NY | | Change Station
CLOSE
Current Station
Personal Weather Station
Location: Troy, NY
Elevation: 853 ft
Nearby Weather Stations

Elev 853 ft 42.77 °N, 73.58 °W | Updated 2 minutes ago

Clear
Clear
37.2 °F
Feels Like 34 °F
N
4.0
Wind Variable Wind from WNW
Gusts 16.0 mph

Today
High -- | Low -- °F
--% Chance of Precip.
Yesterday
High -- | Low -- °F
Precip. -- in
5:57 AM 7:47 PM
Waxing Crescent, 45% visible
Pressure 29.89 in
Visibility 10.0 miles
Clouds Few 4000 ft
Windchill 34 °F
Dew Point 28 °F
Humidity 68%
Rainfall 0.00 in
Snow Depth Not available.
UV 1 out of 12
Pollen 7.20 out of 12
Air Quality Not available.
Flu Activity Widespread
METAR KALB 251151Z 30008KT 10SM FEW040 03/M05 A2988 RMK AO2 SLP120 T00331050 10033 21011 50006

More Conditions Fewer Conditions

Pressure 29.89 in
Visibility 10.0 miles
Clouds Few 4000 ft
Windchill 34 °F
Dew Point 28 °F
Humidity 68%
Rainfall 0.00 in
Snow Depth Not available.
UV 1 out of 12
Pollen 7.20 out of 12
Air Quality Not available.
Flu Activity Widespread
METAR KALB 251151Z 30008KT 10SM FEW040 03/M05 A2988 RMK AO2 SLP120 T00331050 10033 21011 50006

More Conditions Fewer Conditions

10-Day Weather Forecast

Almanac

Astronomy

Apr. 25, 2015 Rise Set
Actual Time
Civil Twilight
Nautical Twilight
Astronomical Twilight
Moon
Length of Visible Light
Length of Day
Tomorrow will be .
, % of the Moon is Illuminated

Today's Extremes

State Highs State Lows

Community

WunderPhotos

Upload Photos

1,816,647 photos uploaded!

WunderBlogs® & News

Nearby

Air Quality

  Air Quality AQ Index Pollutant
Not available.

Snow Depth

Station Depth Elevation

Earthquake Activity

City Distance Mag. Time & Date
Minimum magnitude displayed is 2.5.

Coastal Water Temperatures

Place Temperature

Stations

Nearby Weather Stations

Station Location Temp. Windchill Dew Point Humidity Wind Precip. Elev Updated Type